ENQD weather

Brage A Platform
Norway

Public forecast

Using degrees Celsius for public forecast. Weather courtesy of forecast.io.

METAR (pilot weather report)

Closest report is Oseberg A Platform, 7.2 nm (13.3 km) WSW. Retrieved 2019/05/24 11:20 UTC (8 minutes ago):

ENOA 241120Z 36022KT 9999 SCT008 10/08 Q1009 W///S4

TAF (pilot weather forecast)

Closest forecast is Oseberg A Platform, 7.2 nm (13.3 km) WSW. Retrieved 2019/05/24 09:57 UTC (2 hours ago):

TAF TAF ENOA 240800Z 2409/2509 36022KT 9999 BKN010 PROB40 2409/2421 BKN004 BECMG 2504/2506 SCT010 BKN020 PROB40 TEMPO 2504/2509 SHRA BKN012CB